createdAt,value
2018-04-12T00:00:27.260Z,86.20
2018-04-12T00:02:55.488Z,85.93
2018-04-12T00:05:22.988Z,80.80
2018-04-12T00:07:50.440Z,81.07
2018-04-12T00:10:17.907Z,79.17
2018-04-12T00:12:46.148Z,86.97
2018-04-12T00:15:14.598Z,74.00
2018-04-12T00:17:42.060Z,90.20
2018-04-12T00:20:09.545Z,94.20
2018-04-12T00:22:37.009Z,94.47
2018-04-12T00:25:04.472Z,83.00
2018-04-12T00:27:31.954Z,87.97
2018-04-12T00:30:00.184Z,83.03
2018-04-12T00:32:27.663Z,90.87
2018-04-12T00:34:55.140Z,84.57
2018-04-12T00:37:23.372Z,82.00
2018-04-12T00:39:50.907Z,92.80
2018-04-12T00:42:18.385Z,85.50
2018-04-12T00:44:45.861Z,81.77
2018-04-12T00:47:13.326Z,85.10
2018-04-12T00:49:40.800Z,80.87
2018-04-12T00:52:09.026Z,86.60
2018-04-12T00:54:36.516Z,87.47
2018-04-12T00:57:03.974Z,88.13
2018-04-12T00:59:31.437Z,93.50
2018-04-12T01:01:59.678Z,88.57
2018-04-12T01:04:27.132Z,88.97
2018-04-12T01:06:54.601Z,85.53
2018-04-12T01:09:22.067Z,83.90
2018-04-12T01:11:49.547Z,84.57
2018-04-12T01:14:17.765Z,78.00
2018-04-12T01:16:45.232Z,82.40
2018-04-12T01:19:12.695Z,71.53
2018-04-12T01:21:40.177Z,73.33
2018-04-12T01:24:07.638Z,85.37
2018-04-12T01:26:35.095Z,77.63
2018-04-12T01:29:03.316Z,89.70
2018-04-12T01:31:30.783Z,76.80
2018-04-12T01:33:58.252Z,83.87
2018-04-12T01:36:25.720Z,73.40
2018-04-12T01:38:53.184Z,80.53
2018-04-12T01:41:20.652Z,81.20
2018-04-12T01:43:48.104Z,85.93
2018-04-12T01:46:15.592Z,74.90
2018-04-12T01:48:43.811Z,76.43
2018-04-12T01:51:11.276Z,77.07
2018-04-12T01:53:38.741Z,83.43
2018-04-12T01:56:06.208Z,88.33
2018-04-12T01:58:33.665Z,90.07
2018-04-12T02:01:01.128Z,89.53
2018-04-12T02:03:29.373Z,72.30
2018-04-12T02:05:56.831Z,98.07
2018-04-12T02:08:24.299Z,79.37
2018-04-12T02:10:51.767Z,89.77
2018-04-12T02:13:19.233Z,79.80
2018-04-12T02:15:47.467Z,82.40
2018-04-12T02:18:14.938Z,87.20
2018-04-12T02:20:42.388Z,76.67
2018-04-12T02:23:09.859Z,84.97
2018-04-12T02:25:37.321Z,79.53
2018-04-12T02:28:04.780Z,90.40
2018-04-12T02:30:32.241Z,82.93
2018-04-12T02:32:59.710Z,84.53
2018-04-12T02:35:27.925Z,85.37
2018-04-12T02:37:55.390Z,86.27
2018-04-12T02:40:22.836Z,72.50
2018-04-12T02:42:50.300Z,77.10
2018-04-12T02:45:17.759Z,84.00
2018-04-12T02:47:45.215Z,80.77
2018-04-12T02:50:12.691Z,87.23
2018-04-12T02:52:40.156Z,96.40
2018-04-12T02:55:07.621Z,76.63
2018-04-12T02:57:35.097Z,74.13
2018-04-12T03:00:03.321Z,87.10
2018-04-12T03:02:30.772Z,86.60
2018-04-12T03:04:59.009Z,80.53
2018-04-12T03:07:27.239Z,78.23
2018-04-12T03:09:54.695Z,70.67
2018-04-12T03:12:22.165Z,80.83
2018-04-12T03:14:49.621Z,75.63
2018-04-12T03:17:17.097Z,85.90
2018-04-12T03:19:45.320Z,75.10
2018-04-12T03:22:13.793Z,95.47
2018-04-12T03:24:41.285Z,79.93
2018-04-12T03:27:08.745Z,74.97
2018-04-12T03:29:36.215Z,74.27
2018-04-12T03:32:03.676Z,75.87
2018-04-12T03:34:31.128Z,80.40
2018-04-12T03:36:58.576Z,75.30
2018-04-12T03:39:26.049Z,80.60
2018-04-12T03:41:54.265Z,74.73
2018-04-12T03:44:21.728Z,80.83
2018-04-12T03:46:49.200Z,79.87
2018-04-12T03:49:16.738Z,84.67
2018-04-12T03:51:44.124Z,75.13
2018-04-12T03:54:11.596Z,96.50
2018-04-12T03:56:39.048Z,95.43
2018-04-12T03:59:06.505Z,76.80
2018-04-12T04:01:34.840Z,81.27
2018-04-12T04:04:02.312Z,80.80
2018-04-12T04:06:29.775Z,79.67
2018-04-12T04:08:57.249Z,80.43
2018-04-12T04:11:24.716Z,76.50
2018-04-12T04:13:52.172Z,86.70
2018-04-12T04:16:31.631Z,82.77
2018-04-12T04:19:26.619Z,77.97
2018-04-12T04:21:54.081Z,87.07
2018-04-12T04:24:22.300Z,82.73
2018-04-12T04:26:49.758Z,88.60
2018-04-12T04:29:17.214Z,84.43
2018-04-12T04:31:44.708Z,81.03
2018-04-12T04:34:12.200Z,82.73
2018-04-12T04:36:39.664Z,93.77
2018-04-12T04:39:07.112Z,89.37
2018-04-12T04:41:34.589Z,86.13
2018-04-12T04:44:02.055Z,97.40
2018-04-12T04:46:29.521Z,81.03
2018-04-12T04:48:56.984Z,96.33
2018-04-12T04:51:24.441Z,89.67
2018-04-12T04:53:51.900Z,93.80
2018-04-12T04:56:20.208Z,97.90
2018-04-12T04:58:48.450Z,72.70
2018-04-12T05:01:15.908Z,73.10
2018-04-12T05:03:43.378Z,95.97
2018-04-12T05:06:10.840Z,93.20
2018-04-12T05:08:39.076Z,84.20
2018-04-12T05:11:06.553Z,84.43
2018-04-12T05:13:34.008Z,76.47
2018-04-12T05:16:01.474Z,80.73
2018-04-12T05:18:28.952Z,79.60
2018-04-12T05:20:56.405Z,89.43
2018-04-12T05:23:23.861Z,99.17
2018-04-12T05:25:51.337Z,78.50
2018-04-12T05:28:19.567Z,90.20
2018-04-12T05:30:47.052Z,80.40
2018-04-12T05:33:14.512Z,81.57
2018-04-12T05:35:41.972Z,75.23
2018-04-12T05:38:09.448Z,77.77
2018-04-12T05:40:37.681Z,84.30
2018-04-12T05:43:05.148Z,83.47
2018-04-12T05:45:32.621Z,93.07
2018-04-12T05:48:00.849Z,81.53
2018-04-12T05:50:28.392Z,75.57
2018-04-12T05:52:55.888Z,77.10
2018-04-12T05:55:23.316Z,76.27
2018-04-12T05:57:50.780Z,74.60
2018-04-12T06:00:19.000Z,75.53
2018-04-12T06:02:47.313Z,83.97
2018-04-12T06:05:14.760Z,72.17
2018-04-12T06:07:42.212Z,70.70
2018-04-12T06:10:09.727Z,77.17
2018-04-12T06:12:37.193Z,76.33
2018-04-12T06:15:04.654Z,61.87
2018-04-12T06:17:32.111Z,73.13
2018-04-12T06:20:00.332Z,73.17
2018-04-12T06:22:27.787Z,71.77
2018-04-12T06:24:55.260Z,73.10
2018-04-12T06:27:22.725Z,71.63
2018-04-12T06:29:50.188Z,71.60
2018-04-12T06:32:17.644Z,82.53
2018-04-12T06:34:45.121Z,78.00
2018-04-12T06:37:12.577Z,75.13
2018-04-12T06:39:40.044Z,70.57
2018-04-12T06:42:08.281Z,68.13
2018-04-12T06:44:35.744Z,73.57
2018-04-12T06:47:03.220Z,80.57
2018-04-12T06:49:30.685Z,73.83
2018-04-12T06:51:58.912Z,69.90
2018-04-12T06:54:26.391Z,79.97
2018-04-12T06:56:53.848Z,69.63
2018-04-12T06:59:21.314Z,79.23
2018-04-12T07:01:48.771Z,67.20
2018-04-12T07:04:16.233Z,76.27
2018-04-12T07:06:43.709Z,68.50
2018-04-12T07:09:11.937Z,77.23
2018-04-12T07:11:39.401Z,83.60
2018-04-12T07:14:06.856Z,71.27
2018-04-12T07:16:34.318Z,65.53
2018-04-12T07:19:01.781Z,74.53
2018-04-12T07:21:29.240Z,73.97
2018-04-12T07:23:56.702Z,64.20
2018-04-12T07:26:24.177Z,72.73
2018-04-12T07:28:52.423Z,78.37
2018-04-12T07:31:19.878Z,69.20
2018-04-12T07:33:47.354Z,73.07
2018-04-12T07:36:14.825Z,73.80
2018-04-12T07:38:43.063Z,74.80
2018-04-12T07:41:10.530Z,76.10
2018-04-12T07:43:38.843Z,73.97
2018-04-12T07:46:07.087Z,73.80
2018-04-12T07:48:34.551Z,77.60
2018-04-12T07:51:02.020Z,76.33
2018-04-12T07:53:30.259Z,83.93
2018-04-12T07:55:58.107Z,73.93
2018-04-12T07:58:25.580Z,75.37
2018-04-12T08:00:53.052Z,70.70
2018-04-12T08:03:20.510Z,71.40
2018-04-12T08:05:47.976Z,71.87
2018-04-12T08:08:15.455Z,75.70
2018-04-12T08:10:43.677Z,71.40
2018-04-12T08:13:11.160Z,65.43
2018-04-12T08:15:38.626Z,66.73
2018-04-12T08:18:06.084Z,69.47
2018-04-12T08:20:33.560Z,68.90
2018-04-12T08:23:01.789Z,69.23
2018-04-12T08:25:29.255Z,74.13
2018-04-12T08:27:56.716Z,64.90
2018-04-12T08:30:24.190Z,70.50
2018-04-12T08:32:52.450Z,69.03
2018-04-12T08:35:19.907Z,66.63
2018-04-12T08:37:47.384Z,67.30
2018-04-12T08:40:15.618Z,66.97
2018-04-12T08:42:43.085Z,67.67
2018-04-12T08:45:10.551Z,65.70
2018-04-12T08:47:38.035Z,69.73
2018-04-12T08:50:06.267Z,67.57
2018-04-12T08:52:34.092Z,68.63
2018-04-12T08:55:01.558Z,63.03
2018-04-12T08:57:29.031Z,73.03
2018-04-12T08:59:56.513Z,61.73
2018-04-12T09:02:23.988Z,64.83
2018-04-12T09:04:51.464Z,62.00
2018-04-12T09:07:19.699Z,70.20
2018-04-12T09:09:47.160Z,69.20
2018-04-12T09:12:14.632Z,73.10
2018-04-12T09:14:42.189Z,76.23
2018-04-12T09:17:10.455Z,68.17
2018-04-12T09:19:37.920Z,72.60
2018-04-12T09:22:05.376Z,72.73
2018-04-12T09:24:32.873Z,77.80
2018-04-12T09:27:00.339Z,67.83
2018-04-12T09:29:27.812Z,68.70
2018-04-12T09:31:55.303Z,75.50
2018-04-12T09:34:22.754Z,76.23
2018-04-12T09:36:50.223Z,69.57
2018-04-12T09:39:17.701Z,79.00
2018-04-12T09:41:45.930Z,72.40
2018-04-12T09:44:13.403Z,65.17
2018-04-12T09:46:40.861Z,70.93
2018-04-12T09:49:08.333Z,67.73
2018-04-12T09:51:35.788Z,76.77
2018-04-12T09:54:04.016Z,74.20
2018-04-12T09:56:31.492Z,70.43
2018-04-12T09:58:59.068Z,66.27
2018-04-12T10:01:26.518Z,66.67
2018-04-12T10:03:55.942Z,69.93
2018-04-12T10:06:24.168Z,67.90
2018-04-12T10:08:57.270Z,63.83
2018-04-12T10:11:24.759Z,70.63
2018-04-12T10:13:52.992Z,74.57
2018-04-12T10:16:20.481Z,69.47
2018-04-12T10:18:47.936Z,65.03
2018-04-12T10:21:15.480Z,73.73
2018-04-12T10:23:42.954Z,67.73
2018-04-12T10:26:10.431Z,75.00
2018-04-12T10:28:37.940Z,67.20
2018-04-12T10:31:05.399Z,72.10
2018-04-12T10:33:33.872Z,70.53
2018-04-12T10:36:01.341Z,70.03
2018-04-12T10:38:29.569Z,68.53
2018-04-12T10:40:57.591Z,73.13
2018-04-12T10:43:25.054Z,73.60
2018-04-12T10:45:52.529Z,73.83
2018-04-12T10:48:20.763Z,74.40
2018-04-12T10:50:48.256Z,69.90
2018-04-12T10:53:15.815Z,65.10
2018-04-12T10:55:43.289Z,70.47
2018-04-12T10:58:11.524Z,70.63
2018-04-12T11:00:38.988Z,80.50
2018-04-12T11:03:06.448Z,81.97
2018-04-12T11:05:33.908Z,79.80
2018-04-12T11:08:01.381Z,81.00
2018-04-12T11:10:29.608Z,82.10
2018-04-12T11:12:57.080Z,86.77
2018-04-12T11:15:24.540Z,88.20
2018-04-12T11:17:53.530Z,80.83
2018-04-12T11:20:21.006Z,78.37
2018-04-12T11:22:48.462Z,90.63
2018-04-12T11:25:15.941Z,81.53
2018-04-12T11:27:44.162Z,85.97
2018-04-12T11:30:11.648Z,83.60
2018-04-12T11:32:39.121Z,78.37
2018-04-12T11:35:07.350Z,80.73
2018-04-12T11:37:34.815Z,77.13
2018-04-12T11:40:02.288Z,84.87
2018-04-12T11:42:29.753Z,77.53
2018-04-12T11:44:57.241Z,85.07
2018-04-12T11:47:24.705Z,88.53
2018-04-12T11:49:52.200Z,79.27
2018-04-12T11:52:19.734Z,87.53
2018-04-12T11:54:47.241Z,75.60
2018-04-12T11:57:14.702Z,84.80
2018-04-12T11:59:42.172Z,80.80
2018-04-12T12:02:10.409Z,82.10
2018-04-12T12:04:38.724Z,93.57
2018-04-12T12:07:06.959Z,81.53
2018-04-12T12:09:34.420Z,83.33
2018-04-12T12:12:01.882Z,82.13
2018-04-12T12:14:29.348Z,84.80
2018-04-12T12:16:57.275Z,80.07
2018-04-12T12:19:24.760Z,73.33
2018-04-12T12:21:52.231Z,77.80
2018-04-12T12:24:19.697Z,73.33
2018-04-12T12:26:47.156Z,84.23
2018-04-12T12:29:14.607Z,75.13
2018-04-12T12:31:42.079Z,81.67
2018-04-12T12:34:10.321Z,77.10
2018-04-12T12:36:37.771Z,79.83
2018-04-12T12:39:05.244Z,73.00
2018-04-12T12:41:32.705Z,83.90
2018-04-12T12:44:00.176Z,82.57
2018-04-12T12:46:28.409Z,87.97
2018-04-12T12:48:55.900Z,74.03
2018-04-12T12:51:23.380Z,89.13
2018-04-12T12:53:50.840Z,83.93
2018-04-12T12:56:18.316Z,88.00
2018-04-12T12:58:45.781Z,84.80
2018-04-12T13:01:13.256Z,70.43
2018-04-12T13:03:40.750Z,75.97
2018-04-12T13:06:08.976Z,79.17
2018-04-12T13:08:36.456Z,85.57
2018-04-12T13:11:03.927Z,89.37
2018-04-12T13:13:31.399Z,75.03
2018-04-12T13:15:59.637Z,78.73
2018-04-12T13:18:27.113Z,75.33
2018-04-12T13:20:54.579Z,79.93
2018-04-12T13:23:22.035Z,78.30
2018-04-12T13:25:49.509Z,74.83
2018-04-12T13:28:17.736Z,73.93
2018-04-12T13:30:45.970Z,70.00
2018-04-12T13:33:13.447Z,80.10
2018-04-12T13:35:40.929Z,75.77
2018-04-12T13:38:08.385Z,74.73
2018-04-12T13:40:35.898Z,71.67
2018-04-12T13:43:03.359Z,73.47
2018-04-12T13:45:30.840Z,73.30
2018-04-12T13:47:59.064Z,78.87
2018-04-12T13:50:27.305Z,69.93
2018-04-12T13:52:54.777Z,76.53
2018-04-12T13:55:22.280Z,85.70
2018-04-12T13:57:49.737Z,74.93
2018-04-12T14:00:17.205Z,68.10
2018-04-12T14:02:44.721Z,80.40
2018-04-12T14:05:12.171Z,66.00
2018-04-12T14:07:39.629Z,73.17
2018-04-12T14:10:07.103Z,72.70
2018-04-12T14:12:35.354Z,69.30
2018-04-12T14:15:02.832Z,65.50
2018-04-12T14:17:31.068Z,65.43
2018-04-12T14:19:58.548Z,59.67
2018-04-12T14:22:26.036Z,66.90
2018-04-12T14:24:54.253Z,64.57
2018-04-12T14:27:22.505Z,70.53
2018-04-12T14:29:50.024Z,68.07
2018-04-12T14:32:17.451Z,55.40
2018-04-12T14:34:44.919Z,64.77
2018-04-12T14:37:12.398Z,58.73
2018-04-12T14:39:40.632Z,58.17
2018-04-12T14:42:08.104Z,52.10
2018-04-12T14:44:35.698Z,54.33
2018-04-12T14:47:03.925Z,53.80
2018-04-12T14:49:31.388Z,57.10
2018-04-12T14:51:58.873Z,49.17
2018-04-12T14:54:27.110Z,46.97
2018-04-12T14:56:54.576Z,46.43
2018-04-12T14:59:22.052Z,55.43
2018-04-12T15:01:49.512Z,48.20
2018-04-12T15:04:17.775Z,50.00
2018-04-12T15:06:45.236Z,46.57
2018-04-12T15:09:13.573Z,53.13
2018-04-12T15:11:41.053Z,50.43
2018-04-12T15:14:08.538Z,45.37
2018-04-12T15:16:36.796Z,49.33
2018-04-12T15:19:04.265Z,50.93
2018-04-12T15:21:31.725Z,50.93
2018-04-12T15:23:59.971Z,48.57
2018-04-12T15:26:27.464Z,49.17
2018-04-12T15:28:55.720Z,46.47
2018-04-12T15:31:23.200Z,53.77
2018-04-12T15:33:51.433Z,45.60
2018-04-12T15:36:18.899Z,49.60
2018-04-12T15:38:46.387Z,49.70
2018-04-12T15:41:14.616Z,51.93
2018-04-12T15:43:42.106Z,47.90
2018-04-12T15:46:09.569Z,54.00
2018-04-12T15:48:37.593Z,47.10
2018-04-12T15:51:05.079Z,51.30
2018-04-12T15:53:32.560Z,55.33
2018-04-12T15:56:00.807Z,54.77
2018-04-12T15:58:28.266Z,52.13
2018-04-12T16:00:55.757Z,58.23
2018-04-12T16:03:24.005Z,53.17
2018-04-12T16:05:51.472Z,53.63
2018-04-12T16:08:18.940Z,54.27
2018-04-12T16:10:47.176Z,54.27
2018-04-12T16:13:14.648Z,59.43
2018-04-12T16:15:42.115Z,55.10
2018-04-12T16:18:09.596Z,57.23
2018-04-12T16:20:37.517Z,56.10
2018-04-12T16:23:05.010Z,53.27
2018-04-12T16:25:33.252Z,50.00
2018-04-12T16:28:00.732Z,59.37
2018-04-12T16:30:28.966Z,56.10
2018-04-12T16:32:56.472Z,51.23
2018-04-12T16:35:24.724Z,56.83
2018-04-12T16:37:52.214Z,56.40
2018-04-12T16:40:20.454Z,55.33
2018-04-12T16:42:47.945Z,56.47
2018-04-12T16:45:16.198Z,50.20
2018-04-12T16:47:43.666Z,52.27
2018-04-12T16:50:11.908Z,51.37
2018-04-12T16:52:39.379Z,51.07
2018-04-12T16:55:06.865Z,59.80
2018-04-12T16:57:35.117Z,57.00
2018-04-12T17:00:02.577Z,58.63
2018-04-12T17:02:30.089Z,52.23
2018-04-12T17:04:57.554Z,57.60
2018-04-12T17:07:25.017Z,58.63
2018-04-12T17:09:53.108Z,57.83
2018-04-12T17:12:20.601Z,60.93
2018-04-12T17:14:48.844Z,53.07
2018-04-12T17:17:16.305Z,52.20
2018-04-12T17:19:43.804Z,56.20
2018-04-12T17:22:11.349Z,55.23
2018-04-12T17:24:39.952Z,57.83
2018-04-12T17:27:07.449Z,53.37
2018-04-12T17:29:35.693Z,68.97
2018-04-12T17:32:03.155Z,55.87
2018-04-12T17:34:30.647Z,54.50
2018-04-12T17:36:58.111Z,61.33
2018-04-12T17:39:25.596Z,59.40
2018-04-12T17:41:54.179Z,57.17
2018-04-12T17:44:22.408Z,52.80
2018-04-12T17:46:49.936Z,62.90
2018-04-12T17:49:18.425Z,62.37
2018-04-12T17:51:45.932Z,63.23
2018-04-12T17:54:13.431Z,60.37
2018-04-12T17:56:40.894Z,58.83
2018-04-12T17:59:08.359Z,64.43
2018-04-12T18:01:35.888Z,60.73
2018-04-12T18:04:03.369Z,62.80
2018-04-12T18:06:30.853Z,60.47
2018-04-12T18:08:59.091Z,60.83
2018-04-12T18:11:26.563Z,61.27
2018-04-12T18:13:55.071Z,62.10
2018-04-12T18:16:23.153Z,63.53
2018-04-12T18:18:50.769Z,69.13
2018-04-12T18:21:19.244Z,64.47
2018-04-12T18:23:46.730Z,63.60
2018-04-12T18:26:14.183Z,69.77
2018-04-12T18:28:41.662Z,65.97
2018-04-12T18:31:09.156Z,63.27
2018-04-12T18:33:36.656Z,66.23
2018-04-12T18:36:04.129Z,69.53
2018-04-12T18:38:31.637Z,67.77
2018-04-12T18:40:59.095Z,71.73
2018-04-12T18:43:26.560Z,64.33
2018-04-12T18:45:54.064Z,70.00
2018-04-12T18:48:21.525Z,79.00
2018-04-12T18:50:48.993Z,73.20
2018-04-12T18:53:17.360Z,68.00
2018-04-12T18:55:44.771Z,70.53
2018-04-12T18:58:12.253Z,68.03
2018-04-12T19:00:39.753Z,67.57
2018-04-12T19:03:07.220Z,69.87
2018-04-12T19:05:34.712Z,68.53
2018-04-12T19:08:02.199Z,76.13
2018-04-12T19:10:29.657Z,65.47
2018-04-12T19:12:57.134Z,70.77
2018-04-12T19:15:25.377Z,69.23
2018-04-12T19:17:52.844Z,71.50
2018-04-12T19:20:20.393Z,73.70
2018-04-12T19:22:47.820Z,70.93
2018-04-12T19:25:15.285Z,67.20
2018-04-12T19:27:42.753Z,68.93
2018-04-12T19:30:10.212Z,68.50
2018-04-12T19:32:37.716Z,63.63
2018-04-12T19:35:05.937Z,62.40
2018-04-12T19:37:33.412Z,65.10
2018-04-12T19:40:00.900Z,62.23
2018-04-12T19:42:28.390Z,68.20
2018-04-12T19:44:55.845Z,75.80
2018-04-12T19:47:23.316Z,86.40
2018-04-12T19:49:50.780Z,73.27
2018-04-12T19:52:19.145Z,75.67
2018-04-12T19:54:46.644Z,72.80
2018-04-12T19:57:14.112Z,71.03
2018-04-12T19:59:42.336Z,84.77
2018-04-12T20:02:09.860Z,70.27
2018-04-12T20:04:37.331Z,65.50
2018-04-12T20:07:04.797Z,71.47
2018-04-12T20:09:32.272Z,69.10
2018-04-12T20:11:59.732Z,73.63
2018-04-12T20:14:27.214Z,70.27
2018-04-12T20:16:54.684Z,70.00
2018-04-12T20:19:22.927Z,73.13
2018-04-12T20:21:50.417Z,78.27
2018-04-12T20:24:18.647Z,67.67
2018-04-12T20:26:46.113Z,75.43
2018-04-12T20:29:13.601Z,74.13
2018-04-12T20:31:41.820Z,73.03
2018-04-12T20:34:09.284Z,73.43
2018-04-12T20:36:36.803Z,87.07
2018-04-12T20:39:05.025Z,73.20
2018-04-12T20:41:32.493Z,79.77
2018-04-12T20:43:59.964Z,82.87
2018-04-12T20:46:27.417Z,76.27
2018-04-12T20:48:54.877Z,92.93
2018-04-12T20:51:22.347Z,72.13
2018-04-12T20:53:50.577Z,82.80
2018-04-12T20:56:18.946Z,77.63
2018-04-12T20:58:46.460Z,73.97
2018-04-12T21:01:14.705Z,80.17
2018-04-12T21:03:42.175Z,81.17
2018-04-12T21:06:09.661Z,81.53
2018-04-12T21:08:37.142Z,92.50
2018-04-12T21:11:04.619Z,92.40
2018-04-12T21:13:32.092Z,88.77
2018-04-12T21:15:59.716Z,97.20
2018-04-12T21:18:27.177Z,86.80
2018-04-12T21:20:54.640Z,86.33
2018-04-12T21:23:22.096Z,94.70
2018-04-12T21:25:49.568Z,81.17
2018-04-12T21:28:17.121Z,87.23
2018-04-12T21:30:44.655Z,87.80
2018-04-12T21:33:12.124Z,89.27
2018-04-12T21:35:39.633Z,83.00
2018-04-12T21:38:07.203Z,81.20
2018-04-12T21:40:35.444Z,83.00
2018-04-12T21:43:02.940Z,83.87
2018-04-12T21:45:31.193Z,81.50
2018-04-12T21:47:58.654Z,74.07
2018-04-12T21:50:26.213Z,79.87
2018-04-12T21:52:54.064Z,74.87
2018-04-12T21:55:21.628Z,83.60
2018-04-12T21:57:49.186Z,88.03
2018-04-12T22:00:16.744Z,83.30
2018-04-12T22:02:44.207Z,88.07
2018-04-12T22:05:11.701Z,77.00
2018-04-12T22:07:39.148Z,85.23
2018-04-12T22:10:06.612Z,96.50
2018-04-12T22:12:34.088Z,83.93
2018-04-12T22:15:01.565Z,79.77
2018-04-12T22:17:29.279Z,100.33
2018-04-12T22:19:58.385Z,79.23
2018-04-12T22:22:25.863Z,80.40
2018-04-12T22:24:53.329Z,92.77
2018-04-12T22:27:20.804Z,84.60
2018-04-12T22:29:48.277Z,81.17
2018-04-12T22:32:15.737Z,87.03
2018-04-12T22:34:43.207Z,87.30
2018-04-12T22:37:11.437Z,81.27
2018-04-12T22:39:39.668Z,86.77
2018-04-12T22:42:07.133Z,86.07
2018-04-12T22:44:34.606Z,94.40
2018-04-12T22:47:02.073Z,78.53
2018-04-12T22:49:29.536Z,96.37
2018-04-12T22:51:57.027Z,90.77
2018-04-12T22:54:24.499Z,83.20
2018-04-12T22:56:52.720Z,87.50
2018-04-12T22:59:20.291Z,89.77
2018-04-12T23:01:47.752Z,83.97
2018-04-12T23:04:15.204Z,79.07
2018-04-12T23:06:42.676Z,76.60
2018-04-12T23:09:10.140Z,73.70
2018-04-12T23:11:37.599Z,74.10
2018-04-12T23:14:05.073Z,81.03
2018-04-12T23:16:33.309Z,78.13
2018-04-12T23:19:00.769Z,86.37
2018-04-12T23:21:28.238Z,80.63
2018-04-12T23:23:55.719Z,72.57
2018-04-12T23:26:23.172Z,86.07
2018-04-12T23:28:51.401Z,81.40
2018-04-12T23:31:18.861Z,90.37
2018-04-12T23:33:46.398Z,92.90
2018-04-12T23:36:13.848Z,99.00
2018-04-12T23:38:41.303Z,91.73
2018-04-12T23:41:08.801Z,98.33
2018-04-12T23:43:36.260Z,91.57
2018-04-12T23:46:03.725Z,95.00
2018-04-12T23:48:31.201Z,91.57
2018-04-12T23:50:59.441Z,77.97
2018-04-12T23:53:26.901Z,82.97
2018-04-12T23:55:54.360Z,78.30
2018-04-12T23:58:21.836Z,87.50
